Terminal Aerodrome Forecast
Issued by NWS Sterling, VA

Home | Current Version | Previous Version | Text Only | Print | Product List | Glossary On
Versions: 1 2 3 4 5 6 7 8 9 10 11 12 13 14 15 16
000
FTUS41 KLWX 221720
TAFMRB
TAF
KMRB 221720Z 2218/2318 12007KT P6SM FEW060 SCT140
     FM222200 11006KT P6SM FEW060 SCT090
     FM230300 12004KT P6SM BKN060
     FM230700 VRB03KT P6SM SCT070
     FM231500 13007KT P6SM FEW040 FEW250=

USA.gov is the U.S. government's official web portal to all federal, state and local government web resources and services.